sensor_id;sensor_type;location;lat;lon;timestamp;P1;durP1;ratioP1;P2;durP2;ratioP2
77733;SDS011;66902;41.720;44.796;2023-03-01T00:00:48;11.90;;;7.30;;
77733;SDS011;66902;41.720;44.796;2023-03-01T00:03:24;11.60;;;7.00;;
77733;SDS011;66902;41.720;44.796;2023-03-01T00:05:55;10.70;;;8.10;;
77733;SDS011;66902;41.720;44.796;2023-03-01T00:08:26;12.30;;;7.20;;
77733;SDS011;66902;41.720;44.796;2023-03-01T00:11:04;12.60;;;7.20;;
77733;SDS011;66902;41.720;44.796;2023-03-01T00:13:35;10.30;;;7.10;;
77733;SDS011;66902;41.720;44.796;2023-03-01T00:16:11;12.30;;;6.50;;
77733;SDS011;66902;41.720;44.796;2023-03-01T00:18:43;10.30;;;6.80;;
77733;SDS011;66902;41.720;44.796;2023-03-01T00:21:16;21.40;;;7.00;;
77733;SDS011;66902;41.720;44.796;2023-03-01T00:23:46;9.90;;;6.10;;
77733;SDS011;66902;41.720;44.796;2023-03-01T00:26:17;9.30;;;6.40;;
77733;SDS011;66902;41.720;44.796;2023-03-01T00:28:49;13.80;;;6.20;;
77733;SDS011;66902;41.720;44.796;2023-03-01T00:31:20;10.10;;;6.70;;
77733;SDS011;66902;41.720;44.796;2023-03-01T00:33:54;9.50;;;6.40;;
77733;SDS011;66902;41.720;44.796;2023-03-01T00:36:26;9.00;;;5.80;;
77733;SDS011;66902;41.720;44.796;2023-03-01T00:38:58;9.50;;;4.90;;
77733;SDS011;66902;41.720;44.796;2023-03-01T00:41:29;6.30;;;5.60;;
77733;SDS011;66902;41.720;44.796;2023-03-01T00:43:59;8.80;;;5.70;;
77733;SDS011;66902;41.720;44.796;2023-03-01T00:46:29;10.00;;;5.20;;
77733;SDS011;66902;41.720;44.796;2023-03-01T00:49:01;9.10;;;5.30;;
77733;SDS011;66902;41.720;44.796;2023-03-01T00:51:32;9.80;;;6.40;;
77733;SDS011;66902;41.720;44.796;2023-03-01T00:54:03;15.40;;;6.60;;
77733;SDS011;66902;41.720;44.796;2023-03-01T00:56:33;9.10;;;5.50;;
77733;SDS011;66902;41.720;44.796;2023-03-01T00:59:03;8.70;;;5.80;;
77733;SDS011;66902;41.720;44.796;2023-03-01T01:01:34;11.00;;;6.80;;
77733;SDS011;66902;41.720;44.796;2023-03-01T01:04:09;7.80;;;6.00;;
77733;SDS011;66902;41.720;44.796;2023-03-01T01:06:40;11.10;;;6.60;;
77733;SDS011;66902;41.720;44.796;2023-03-01T01:09:13;10.20;;;6.80;;
77733;SDS011;66902;41.720;44.796;2023-03-01T01:11:45;11.50;;;7.00;;
77733;SDS011;66902;41.720;44.796;2023-03-01T01:14:17;11.40;;;6.70;;
77733;SDS011;66902;41.720;44.796;2023-03-01T01:16:48;8.00;;;6.90;;
77733;SDS011;66902;41.720;44.796;2023-03-01T01:19:19;11.10;;;6.50;;
77733;SDS011;66902;41.720;44.796;2023-03-01T01:21:49;13.30;;;6.10;;
77733;SDS011;66902;41.720;44.796;2023-03-01T01:24:20;20.10;;;6.60;;
77733;SDS011;66902;41.720;44.796;2023-03-01T01:26:50;9.80;;;6.10;;
77733;SDS011;66902;41.720;44.796;2023-03-01T01:29:21;13.30;;;7.40;;
77733;SDS011;66902;41.720;44.796;2023-03-01T01:31:52;12.90;;;7.40;;
77733;SDS011;66902;41.720;44.796;2023-03-01T01:34:22;14.50;;;8.30;;
77733;SDS011;66902;41.720;44.796;2023-03-01T01:36:52;17.70;;;7.40;;
77733;SDS011;66902;41.720;44.796;2023-03-01T01:39:24;9.20;;;6.60;;
77733;SDS011;66902;41.720;44.796;2023-03-01T01:41:54;13.90;;;7.30;;
77733;SDS011;66902;41.720;44.796;2023-03-01T01:44:25;18.10;;;8.10;;
77733;SDS011;66902;41.720;44.796;2023-03-01T01:46:57;19.20;;;8.50;;
77733;SDS011;66902;41.720;44.796;2023-03-01T01:49:31;15.90;;;8.70;;
77733;SDS011;66902;41.720;44.796;2023-03-01T01:52:05;10.50;;;7.90;;
77733;SDS011;66902;41.720;44.796;2023-03-01T01:54:43;10.80;;;7.40;;
77733;SDS011;66902;41.720;44.796;2023-03-01T01:57:16;12.50;;;6.90;;
77733;SDS011;66902;41.720;44.796;2023-03-01T01:59:49;13.10;;;8.00;;
77733;SDS011;66902;41.720;44.796;2023-03-01T02:02:21;11.40;;;7.90;;
77733;SDS011;66902;41.720;44.796;2023-03-01T02:05:01;10.20;;;7.80;;
77733;SDS011;66902;41.720;44.796;2023-03-01T02:07:38;9.70;;;6.70;;
77733;SDS011;66902;41.720;44.796;2023-03-01T02:10:10;11.80;;;7.90;;
77733;SDS011;66902;41.720;44.796;2023-03-01T02:12:40;8.60;;;7.50;;
77733;SDS011;66902;41.720;44.796;2023-03-01T02:15:11;13.80;;;7.40;;
77733;SDS011;66902;41.720;44.796;2023-03-01T02:17:42;11.80;;;7.40;;
77733;SDS011;66902;41.720;44.796;2023-03-01T02:20:14;13.90;;;8.00;;
77733;SDS011;66902;41.720;44.796;2023-03-01T02:22:48;11.00;;;7.10;;
77733;SDS011;66902;41.720;44.796;2023-03-01T02:25:30;7.20;;;6.10;;
77733;SDS011;66902;41.720;44.796;2023-03-01T02:28:08;11.50;;;8.40;;
77733;SDS011;66902;41.720;44.796;2023-03-01T02:30:46;7.00;;;6.30;;
77733;SDS011;66902;41.720;44.796;2023-03-01T02:33:32;10.70;;;7.50;;
77733;SDS011;66902;41.720;44.796;2023-03-01T02:36:06;16.90;;;10.50;;
77733;SDS011;66902;41.720;44.796;2023-03-01T02:38:37;14.50;;;8.60;;
77733;SDS011;66902;41.720;44.796;2023-03-01T02:41:09;13.80;;;8.00;;
77733;SDS011;66902;41.720;44.796;2023-03-01T02:43:41;13.80;;;7.50;;
77733;SDS011;66902;41.720;44.796;2023-03-01T02:46:15;15.50;;;6.90;;
77733;SDS011;66902;41.720;44.796;2023-03-01T02:48:47;9.80;;;6.90;;
77733;SDS011;66902;41.720;44.796;2023-03-01T02:51:24;12.40;;;5.80;;
77733;SDS011;66902;41.720;44.796;2023-03-01T02:54:06;9.20;;;7.00;;
77733;SDS011;66902;41.720;44.796;2023-03-01T02:56:41;10.30;;;6.30;;
77733;SDS011;66902;41.720;44.796;2023-03-01T02:59:16;9.50;;;7.00;;
77733;SDS011;66902;41.720;44.796;2023-03-01T03:01:48;10.50;;;6.20;;
77733;SDS011;66902;41.720;44.796;2023-03-01T03:04:20;14.50;;;7.00;;
77733;SDS011;66902;41.720;44.796;2023-03-01T03:06:51;11.40;;;6.60;;
77733;SDS011;66902;41.720;44.796;2023-03-01T03:09:21;11.70;;;7.70;;
77733;SDS011;66902;41.720;44.796;2023-03-01T03:11:52;16.70;;;7.30;;
77733;SDS011;66902;41.720;44.796;2023-03-01T03:14:22;10.60;;;7.10;;
77733;SDS011;66902;41.720;44.796;2023-03-01T03:16:53;14.50;;;8.80;;
77733;SDS011;66902;41.720;44.796;2023-03-01T03:19:23;18.50;;;8.40;;
77733;SDS011;66902;41.720;44.796;2023-03-01T03:21:54;8.70;;;6.70;;
77733;SDS011;66902;41.720;44.796;2023-03-01T03:24:25;14.20;;;7.50;;
77733;SDS011;66902;41.720;44.796;2023-03-01T03:27:06;13.50;;;8.00;;
77733;SDS011;66902;41.720;44.796;2023-03-01T03:29:37;9.80;;;7.10;;
77733;SDS011;66902;41.720;44.796;2023-03-01T03:32:08;11.10;;;7.60;;
77733;SDS011;66902;41.720;44.796;2023-03-01T03:34:38;13.10;;;8.80;;
77733;SDS011;66902;41.720;44.796;2023-03-01T03:37:09;20.10;;;10.00;;
77733;SDS011;66902;41.720;44.796;2023-03-01T03:40:00;18.90;;;8.50;;
77733;SDS011;66902;41.720;44.796;2023-03-01T03:42:31;18.80;;;8.90;;
77733;SDS011;66902;41.720;44.796;2023-03-01T03:45:02;16.10;;;8.90;;
77733;SDS011;66902;41.720;44.796;2023-03-01T03:47:33;17.80;;;8.70;;
77733;SDS011;66902;41.720;44.796;2023-03-01T03:50:05;14.40;;;8.70;;
77733;SDS011;66902;41.720;44.796;2023-03-01T03:52:36;15.90;;;9.50;;
77733;SDS011;66902;41.720;44.796;2023-03-01T03:55:08;26.30;;;10.20;;
77733;SDS011;66902;41.720;44.796;2023-03-01T03:57:40;15.60;;;8.70;;
77733;SDS011;66902;41.720;44.796;2023-03-01T04:00:12;18.10;;;9.10;;
77733;SDS011;66902;41.720;44.796;2023-03-01T04:02:45;29.60;;;10.30;;
77733;SDS011;66902;41.720;44.796;2023-03-01T04:05:17;13.90;;;9.00;;
77733;SDS011;66902;41.720;44.796;2023-03-01T04:07:48;22.90;;;10.10;;
77733;SDS011;66902;41.720;44.796;2023-03-01T04:10:29;26.20;;;11.40;;
77733;SDS011;66902;41.720;44.796;2023-03-01T04:13:00;18.70;;;10.50;;
77733;SDS011;66902;41.720;44.796;2023-03-01T04:15:31;18.20;;;11.20;;
77733;SDS011;66902;41.720;44.796;2023-03-01T04:18:02;22.00;;;11.10;;
77733;SDS011;66902;41.720;44.796;2023-03-01T04:20:34;9.40;;;8.10;;
77733;SDS011;66902;41.720;44.796;2023-03-01T04:23:05;13.50;;;8.20;;
77733;SDS011;66902;41.720;44.796;2023-03-01T04:25:40;14.00;;;8.50;;
77733;SDS011;66902;41.720;44.796;2023-03-01T04:28:11;17.00;;;9.30;;
77733;SDS011;66902;41.720;44.796;2023-03-01T04:30:42;21.40;;;9.30;;
77733;SDS011;66902;41.720;44.796;2023-03-01T04:33:13;19.50;;;9.20;;
77733;SDS011;66902;41.720;44.796;2023-03-01T04:35:43;17.40;;;8.20;;
77733;SDS011;66902;41.720;44.796;2023-03-01T04:38:18;24.90;;;12.00;;
77733;SDS011;66902;41.720;44.796;2023-03-01T04:40:50;19.30;;;9.80;;
77733;SDS011;66902;41.720;44.796;2023-03-01T04:43:20;21.60;;;10.10;;
77733;SDS011;66902;41.720;44.796;2023-03-01T04:45:50;25.10;;;11.80;;
77733;SDS011;66902;41.720;44.796;2023-03-01T04:48:22;16.20;;;9.90;;
77733;SDS011;66902;41.720;44.796;2023-03-01T04:50:53;23.30;;;11.30;;
77733;SDS011;66902;41.720;44.796;2023-03-01T04:53:23;22.10;;;11.00;;
77733;SDS011;66902;41.720;44.796;2023-03-01T04:55:54;19.30;;;11.40;;
77733;SDS011;66902;41.720;44.796;2023-03-01T04:58:25;21.20;;;10.80;;
77733;SDS011;66902;41.720;44.796;2023-03-01T05:00:57;20.50;;;9.80;;
77733;SDS011;66902;41.720;44.796;2023-03-01T05:03:27;24.10;;;9.80;;
77733;SDS011;66902;41.720;44.796;2023-03-01T05:05:58;21.10;;;9.50;;
77733;SDS011;66902;41.720;44.796;2023-03-01T05:08:29;23.10;;;9.80;;
77733;SDS011;66902;41.720;44.796;2023-03-01T05:11:02;32.70;;;11.10;;
77733;SDS011;66902;41.720;44.796;2023-03-01T05:13:33;18.80;;;10.20;;
77733;SDS011;66902;41.720;44.796;2023-03-01T05:16:06;18.10;;;10.50;;
77733;SDS011;66902;41.720;44.796;2023-03-01T05:18:39;26.40;;;11.90;;
77733;SDS011;66902;41.720;44.796;2023-03-01T05:21:10;21.90;;;9.70;;
77733;SDS011;66902;41.720;44.796;2023-03-01T05:23:44;19.60;;;10.70;;
77733;SDS011;66902;41.720;44.796;2023-03-01T05:26:15;17.30;;;9.90;;
77733;SDS011;66902;41.720;44.796;2023-03-01T05:28:55;25.70;;;10.10;;
77733;SDS011;66902;41.720;44.796;2023-03-01T05:31:27;14.80;;;9.60;;
77733;SDS011;66902;41.720;44.796;2023-03-01T05:33:58;16.90;;;9.50;;
77733;SDS011;66902;41.720;44.796;2023-03-01T05:36:30;15.90;;;11.10;;
77733;SDS011;66902;41.720;44.796;2023-03-01T05:39:01;13.90;;;9.40;;
77733;SDS011;66902;41.720;44.796;2023-03-01T05:41:31;14.20;;;8.30;;
77733;SDS011;66902;41.720;44.796;2023-03-01T05:44:02;18.80;;;8.90;;
77733;SDS011;66902;41.720;44.796;2023-03-01T05:46:33;15.70;;;9.00;;
77733;SDS011;66902;41.720;44.796;2023-03-01T05:49:04;22.30;;;9.90;;
77733;SDS011;66902;41.720;44.796;2023-03-01T05:51:34;15.20;;;10.20;;
77733;SDS011;66902;41.720;44.796;2023-03-01T05:54:05;23.80;;;9.80;;
77733;SDS011;66902;41.720;44.796;2023-03-01T05:56:36;18.00;;;10.90;;
77733;SDS011;66902;41.720;44.796;2023-03-01T05:59:09;12.60;;;9.10;;
77733;SDS011;66902;41.720;44.796;2023-03-01T06:01:40;26.60;;;10.10;;
77733;SDS011;66902;41.720;44.796;2023-03-01T06:04:10;17.50;;;9.30;;
77733;SDS011;66902;41.720;44.796;2023-03-01T06:06:41;17.20;;;10.80;;
77733;SDS011;66902;41.720;44.796;2023-03-01T06:09:12;22.90;;;14.20;;
77733;SDS011;66902;41.720;44.796;2023-03-01T06:11:42;16.20;;;10.90;;
77733;SDS011;66902;41.720;44.796;2023-03-01T06:14:13;20.00;;;12.20;;
77733;SDS011;66902;41.720;44.796;2023-03-01T06:16:43;18.10;;;10.70;;
77733;SDS011;66902;41.720;44.796;2023-03-01T06:19:14;15.50;;;8.70;;
77733;SDS011;66902;41.720;44.796;2023-03-01T06:21:44;16.30;;;10.50;;
77733;SDS011;66902;41.720;44.796;2023-03-01T06:24:14;12.30;;;8.00;;
77733;SDS011;66902;41.720;44.796;2023-03-01T06:26:45;17.30;;;9.00;;
77733;SDS011;66902;41.720;44.796;2023-03-01T06:29:15;15.50;;;9.40;;
77733;SDS011;66902;41.720;44.796;2023-03-01T06:31:46;13.80;;;8.60;;
77733;SDS011;66902;41.720;44.796;2023-03-01T06:34:16;11.00;;;8.10;;
77733;SDS011;66902;41.720;44.796;2023-03-01T06:36:47;18.30;;;9.60;;
77733;SDS011;66902;41.720;44.796;2023-03-01T06:39:17;23.80;;;9.30;;
77733;SDS011;66902;41.720;44.796;2023-03-01T06:41:48;14.60;;;9.50;;
77733;SDS011;66902;41.720;44.796;2023-03-01T06:44:20;14.00;;;9.80;;
77733;SDS011;66902;41.720;44.796;2023-03-01T06:46:51;16.00;;;9.50;;
77733;SDS011;66902;41.720;44.796;2023-03-01T06:49:21;23.10;;;9.10;;
77733;SDS011;66902;41.720;44.796;2023-03-01T06:51:52;16.20;;;10.00;;
77733;SDS011;66902;41.720;44.796;2023-03-01T06:54:22;15.30;;;8.80;;
77733;SDS011;66902;41.720;44.796;2023-03-01T06:56:54;16.20;;;8.80;;
77733;SDS011;66902;41.720;44.796;2023-03-01T06:59:24;16.50;;;9.70;;
77733;SDS011;66902;41.720;44.796;2023-03-01T07:01:54;24.10;;;8.10;;
77733;SDS011;66902;41.720;44.796;2023-03-01T07:04:25;14.70;;;9.00;;
77733;SDS011;66902;41.720;44.796;2023-03-01T07:06:56;22.70;;;10.60;;
77733;SDS011;66902;41.720;44.796;2023-03-01T07:09:27;21.30;;;10.90;;
77733;SDS011;66902;41.720;44.796;2023-03-01T07:11:57;17.80;;;10.70;;
77733;SDS011;66902;41.720;44.796;2023-03-01T07:14:29;15.00;;;9.60;;
77733;SDS011;66902;41.720;44.796;2023-03-01T07:16:59;13.30;;;10.10;;
77733;SDS011;66902;41.720;44.796;2023-03-01T07:19:29;16.90;;;8.00;;
77733;SDS011;66902;41.720;44.796;2023-03-01T07:22:00;21.00;;;8.80;;
77733;SDS011;66902;41.720;44.796;2023-03-01T07:24:34;16.20;;;9.40;;
77733;SDS011;66902;41.720;44.796;2023-03-01T07:27:05;15.60;;;9.60;;
77733;SDS011;66902;41.720;44.796;2023-03-01T07:29:35;14.30;;;8.70;;
77733;SDS011;66902;41.720;44.796;2023-03-01T07:32:06;24.40;;;9.70;;
77733;SDS011;66902;41.720;44.796;2023-03-01T07:34:37;15.30;;;9.70;;
77733;SDS011;66902;41.720;44.796;2023-03-01T07:37:07;16.10;;;9.60;;
77733;SDS011;66902;41.720;44.796;2023-03-01T07:39:38;13.40;;;8.30;;
77733;SDS011;66902;41.720;44.796;2023-03-01T07:42:08;25.00;;;9.20;;
77733;SDS011;66902;41.720;44.796;2023-03-01T07:44:39;23.30;;;8.30;;
77733;SDS011;66902;41.720;44.796;2023-03-01T07:47:10;15.40;;;7.50;;
77733;SDS011;66902;41.720;44.796;2023-03-01T07:49:40;12.50;;;6.50;;
77733;SDS011;66902;41.720;44.796;2023-03-01T07:52:11;18.70;;;6.50;;
77733;SDS011;66902;41.720;44.796;2023-03-01T07:54:45;17.60;;;7.70;;
77733;SDS011;66902;41.720;44.796;2023-03-01T07:57:15;17.30;;;8.30;;
77733;SDS011;66902;41.720;44.796;2023-03-01T07:59:46;16.00;;;7.60;;
77733;SDS011;66902;41.720;44.796;2023-03-01T08:02:16;13.00;;;7.20;;
77733;SDS011;66902;41.720;44.796;2023-03-01T08:04:47;14.90;;;8.70;;
77733;SDS011;66902;41.720;44.796;2023-03-01T08:07:17;9.60;;;6.80;;
77733;SDS011;66902;41.720;44.796;2023-03-01T08:09:48;18.40;;;8.40;;
77733;SDS011;66902;41.720;44.796;2023-03-01T08:12:18;11.20;;;7.60;;
77733;SDS011;66902;41.720;44.796;2023-03-01T08:14:49;16.90;;;7.90;;
77733;SDS011;66902;41.720;44.796;2023-03-01T08:17:20;11.40;;;7.30;;
77733;SDS011;66902;41.720;44.796;2023-03-01T08:19:50;14.30;;;8.30;;
77733;SDS011;66902;41.720;44.796;2023-03-01T08:22:21;21.60;;;7.70;;
77733;SDS011;66902;41.720;44.796;2023-03-01T08:24:51;10.40;;;7.10;;
77733;SDS011;66902;41.720;44.796;2023-03-01T08:27:23;11.90;;;7.20;;
77733;SDS011;66902;41.720;44.796;2023-03-01T08:29:54;11.20;;;7.60;;
77733;SDS011;66902;41.720;44.796;2023-03-01T08:32:25;10.30;;;6.10;;
77733;SDS011;66902;41.720;44.796;2023-03-01T08:34:55;13.00;;;7.30;;
77733;SDS011;66902;41.720;44.796;2023-03-01T08:37:26;22.60;;;8.30;;
77733;SDS011;66902;41.720;44.796;2023-03-01T08:39:58;14.00;;;7.30;;
77733;SDS011;66902;41.720;44.796;2023-03-01T08:42:29;14.70;;;6.40;;
77733;SDS011;66902;41.720;44.796;2023-03-01T08:45:01;21.30;;;8.00;;
77733;SDS011;66902;41.720;44.796;2023-03-01T08:47:31;22.60;;;7.70;;
77733;SDS011;66902;41.720;44.796;2023-03-01T08:50:02;21.80;;;9.00;;
77733;SDS011;66902;41.720;44.796;2023-03-01T08:52:34;12.90;;;8.10;;
77733;SDS011;66902;41.720;44.796;2023-03-01T08:55:06;18.20;;;8.50;;
77733;SDS011;66902;41.720;44.796;2023-03-01T08:57:40;12.50;;;8.00;;
77733;SDS011;66902;41.720;44.796;2023-03-01T09:00:12;18.60;;;7.60;;
77733;SDS011;66902;41.720;44.796;2023-03-01T09:02:43;13.40;;;7.20;;
77733;SDS011;66902;41.720;44.796;2023-03-01T09:05:14;16.70;;;6.70;;
77733;SDS011;66902;41.720;44.796;2023-03-01T09:07:47;14.70;;;6.10;;
77733;SDS011;66902;41.720;44.796;2023-03-01T09:10:18;9.90;;;6.40;;
77733;SDS011;66902;41.720;44.796;2023-03-01T09:12:49;22.30;;;7.00;;
77733;SDS011;66902;41.720;44.796;2023-03-01T09:15:19;10.10;;;6.40;;
77733;SDS011;66902;41.720;44.796;2023-03-01T09:17:50;9.30;;;6.10;;
77733;SDS011;66902;41.720;44.796;2023-03-01T09:20:21;30.10;;;6.60;;
77733;SDS011;66902;41.720;44.796;2023-03-01T09:22:51;8.90;;;5.70;;
77733;SDS011;66902;41.720;44.796;2023-03-01T09:25:22;20.60;;;5.70;;
77733;SDS011;66902;41.720;44.796;2023-03-01T09:27:53;9.90;;;6.90;;
77733;SDS011;66902;41.720;44.796;2023-03-01T09:30:23;14.70;;;6.10;;
77733;SDS011;66902;41.720;44.796;2023-03-01T09:32:55;11.10;;;5.70;;
77733;SDS011;66902;41.720;44.796;2023-03-01T09:35:26;16.30;;;6.20;;
77733;SDS011;66902;41.720;44.796;2023-03-01T09:37:57;14.10;;;7.90;;
77733;SDS011;66902;41.720;44.796;2023-03-01T09:40:28;12.10;;;6.30;;
77733;SDS011;66902;41.720;44.796;2023-03-01T09:43:01;9.90;;;6.60;;
77733;SDS011;66902;41.720;44.796;2023-03-01T09:45:38;7.50;;;4.70;;
77733;SDS011;66902;41.720;44.796;2023-03-01T09:48:12;7.40;;;5.50;;
77733;SDS011;66902;41.720;44.796;2023-03-01T09:50:47;12.70;;;5.60;;
77733;SDS011;66902;41.720;44.796;2023-03-01T09:53:26;15.40;;;4.80;;
77733;SDS011;66902;41.720;44.796;2023-03-01T09:56:04;12.20;;;5.20;;
77733;SDS011;66902;41.720;44.796;2023-03-01T09:58:45;7.20;;;3.80;;
77733;SDS011;66902;41.720;44.796;2023-03-01T10:01:30;8.70;;;5.10;;
77733;SDS011;66902;41.720;44.796;2023-03-01T10:04:11;11.80;;;5.90;;
77733;SDS011;66902;41.720;44.796;2023-03-01T10:06:51;17.80;;;5.60;;
77733;SDS011;66902;41.720;44.796;2023-03-01T10:09:32;11.10;;;5.90;;
77733;SDS011;66902;41.720;44.796;2023-03-01T10:12:07;20.70;;;6.80;;
77733;SDS011;66902;41.720;44.796;2023-03-01T10:14:41;15.50;;;6.10;;
77733;SDS011;66902;41.720;44.796;2023-03-01T10:17:18;10.50;;;5.00;;
77733;SDS011;66902;41.720;44.796;2023-03-01T10:19:53;9.70;;;5.30;;
77733;SDS011;66902;41.720;44.796;2023-03-01T10:22:24;19.50;;;5.80;;
77733;SDS011;66902;41.720;44.796;2023-03-01T10:24:57;16.40;;;5.20;;
77733;SDS011;66902;41.720;44.796;2023-03-01T10:27:29;20.50;;;5.90;;
77733;SDS011;66902;41.720;44.796;2023-03-01T10:30:09;12.00;;;5.70;;
77733;SDS011;66902;41.720;44.796;2023-03-01T10:32:44;8.40;;;4.10;;
77733;SDS011;66902;41.720;44.796;2023-03-01T10:35:19;12.10;;;4.60;;
77733;SDS011;66902;41.720;44.796;2023-03-01T10:37:57;11.50;;;5.60;;
77733;SDS011;66902;41.720;44.796;2023-03-01T10:40:30;13.60;;;5.50;;
77733;SDS011;66902;41.720;44.796;2023-03-01T10:43:02;17.10;;;6.40;;
77733;SDS011;66902;41.720;44.796;2023-03-01T10:45:35;11.80;;;6.40;;
77733;SDS011;66902;41.720;44.796;2023-03-01T10:48:10;9.30;;;5.20;;
77733;SDS011;66902;41.720;44.796;2023-03-01T10:50:43;11.40;;;6.70;;
77733;SDS011;66902;41.720;44.796;2023-03-01T10:53:22;9.60;;;5.70;;
77733;SDS011;66902;41.720;44.796;2023-03-01T10:56:00;13.40;;;5.50;;
77733;SDS011;66902;41.720;44.796;2023-03-01T10:58:33;14.40;;;4.70;;
77733;SDS011;66902;41.720;44.796;2023-03-01T11:01:06;17.30;;;5.70;;
77733;SDS011;66902;41.720;44.796;2023-03-01T11:04:08;11.40;;;4.60;;
77733;SDS011;66902;41.720;44.796;2023-03-01T11:06:42;11.00;;;6.00;;
77733;SDS011;66902;41.720;44.796;2023-03-01T11:09:17;9.20;;;4.50;;
77733;SDS011;66902;41.720;44.796;2023-03-01T11:11:52;20.10;;;5.10;;
77733;SDS011;66902;41.720;44.796;2023-03-01T11:14:23;13.20;;;4.80;;
77733;SDS011;66902;41.720;44.796;2023-03-01T11:16:59;10.60;;;4.30;;
77733;SDS011;66902;41.720;44.796;2023-03-01T11:19:32;7.30;;;4.40;;
77733;SDS011;66902;41.720;44.796;2023-03-01T11:22:07;9.30;;;5.10;;
77733;SDS011;66902;41.720;44.796;2023-03-01T11:24:43;16.30;;;5.00;;
77733;SDS011;66902;41.720;44.796;2023-03-01T11:27:32;17.70;;;5.10;;
77733;SDS011;66902;41.720;44.796;2023-03-01T11:32:45;7.40;;;4.70;;
77733;SDS011;66902;41.720;44.796;2023-03-01T11:35:20;18.50;;;6.10;;
77733;SDS011;66902;41.720;44.796;2023-03-01T11:37:55;17.30;;;6.70;;
77733;SDS011;66902;41.720;44.796;2023-03-01T11:40:35;18.90;;;5.80;;
77733;SDS011;66902;41.720;44.796;2023-03-01T11:43:11;12.70;;;4.40;;
77733;SDS011;66902;41.720;44.796;2023-03-01T11:45:52;15.40;;;5.20;;
77733;SDS011;66902;41.720;44.796;2023-03-01T11:48:49;15.50;;;5.50;;
77733;SDS011;66902;41.720;44.796;2023-03-01T11:51:33;11.30;;;5.30;;
77733;SDS011;66902;41.720;44.796;2023-03-01T11:54:16;15.50;;;5.00;;
77733;SDS011;66902;41.720;44.796;2023-03-01T11:56:55;7.80;;;4.40;;
77733;SDS011;66902;41.720;44.796;2023-03-01T11:59:34;14.60;;;5.30;;
77733;SDS011;66902;41.720;44.796;2023-03-01T12:02:39;12.60;;;5.30;;
77733;SDS011;66902;41.720;44.796;2023-03-01T12:05:30;20.80;;;5.80;;
77733;SDS011;66902;41.720;44.796;2023-03-01T12:08:17;18.40;;;6.00;;
77733;SDS011;66902;41.720;44.796;2023-03-01T12:10:52;17.00;;;5.80;;
77733;SDS011;66902;41.720;44.796;2023-03-01T12:13:49;20.20;;;5.50;;
77733;SDS011;66902;41.720;44.796;2023-03-01T12:16:29;13.30;;;5.60;;
77733;SDS011;66902;41.720;44.796;2023-03-01T12:19:24;7.70;;;5.80;;
77733;SDS011;66902;41.720;44.796;2023-03-01T12:25:08;16.50;;;5.50;;
77733;SDS011;66902;41.720;44.796;2023-03-01T12:27:50;11.10;;;6.30;;
77733;SDS011;66902;41.720;44.796;2023-03-01T12:30:30;20.30;;;6.50;;
77733;SDS011;66902;41.720;44.796;2023-03-01T12:33:15;23.80;;;4.40;;
77733;SDS011;66902;41.720;44.796;2023-03-01T12:35:57;9.60;;;6.00;;
77733;SDS011;66902;41.720;44.796;2023-03-01T12:38:40;18.20;;;5.70;;
77733;SDS011;66902;41.720;44.796;2023-03-01T12:44:10;8.40;;;5.20;;
77733;SDS011;66902;41.720;44.796;2023-03-01T12:46:48;11.30;;;6.10;;
77733;SDS011;66902;41.720;44.796;2023-03-01T12:49:26;13.10;;;5.60;;
77733;SDS011;66902;41.720;44.796;2023-03-01T12:52:00;14.50;;;6.40;;
77733;SDS011;66902;41.720;44.796;2023-03-01T12:54:33;16.60;;;5.90;;
77733;SDS011;66902;41.720;44.796;2023-03-01T12:57:08;12.00;;;5.30;;
77733;SDS011;66902;41.720;44.796;2023-03-01T12:59:47;7.70;;;5.20;;
77733;SDS011;66902;41.720;44.796;2023-03-01T13:02:37;19.30;;;5.50;;
77733;SDS011;66902;41.720;44.796;2023-03-01T13:05:23;12.20;;;5.60;;
77733;SDS011;66902;41.720;44.796;2023-03-01T13:07:58;7.40;;;4.50;;
77733;SDS011;66902;41.720;44.796;2023-03-01T13:10:31;10.90;;;5.10;;
77733;SDS011;66902;41.720;44.796;2023-03-01T13:13:12;14.80;;;5.10;;
77733;SDS011;66902;41.720;44.796;2023-03-01T13:15:48;13.40;;;5.20;;
77733;SDS011;66902;41.720;44.796;2023-03-01T13:18:31;17.30;;;4.90;;
77733;SDS011;66902;41.720;44.796;2023-03-01T13:21:04;18.50;;;5.80;;
77733;SDS011;66902;41.720;44.796;2023-03-01T13:23:37;12.20;;;5.60;;
77733;SDS011;66902;41.720;44.796;2023-03-01T13:26:08;15.70;;;5.70;;
77733;SDS011;66902;41.720;44.796;2023-03-01T13:28:45;11.90;;;5.80;;
77733;SDS011;66902;41.720;44.796;2023-03-01T13:43:27;16.30;;;6.20;;
77733;SDS011;66902;41.720;44.796;2023-03-01T13:46:02;10.80;;;5.40;;
77733;SDS011;66902;41.720;44.796;2023-03-01T13:48:39;20.10;;;5.80;;
77733;SDS011;66902;41.720;44.796;2023-03-01T13:51:10;15.70;;;6.00;;
77733;SDS011;66902;41.720;44.796;2023-03-01T13:53:45;16.40;;;5.10;;
77733;SDS011;66902;41.720;44.796;2023-03-01T13:56:22;13.00;;;5.70;;
77733;SDS011;66902;41.720;44.796;2023-03-01T13:58:57;11.50;;;5.80;;
77733;SDS011;66902;41.720;44.796;2023-03-01T14:01:29;12.60;;;5.80;;
77733;SDS011;66902;41.720;44.796;2023-03-01T14:04:17;8.90;;;5.10;;
77733;SDS011;66902;41.720;44.796;2023-03-01T14:06:51;12.70;;;7.00;;
77733;SDS011;66902;41.720;44.796;2023-03-01T14:09:25;16.50;;;6.10;;
77733;SDS011;66902;41.720;44.796;2023-03-01T14:15:01;13.30;;;5.90;;
77733;SDS011;66902;41.720;44.796;2023-03-01T14:17:39;13.00;;;7.10;;
77733;SDS011;66902;41.720;44.796;2023-03-01T14:20:16;18.30;;;6.50;;
77733;SDS011;66902;41.720;44.796;2023-03-01T14:22:49;10.70;;;5.20;;
77733;SDS011;66902;41.720;44.796;2023-03-01T14:25:22;8.80;;;5.40;;
77733;SDS011;66902;41.720;44.796;2023-03-01T14:28:02;10.80;;;6.00;;
77733;SDS011;66902;41.720;44.796;2023-03-01T14:30:43;13.50;;;6.80;;
77733;SDS011;66902;41.720;44.796;2023-03-01T14:33:20;13.00;;;6.60;;
77733;SDS011;66902;41.720;44.796;2023-03-01T14:35:53;12.20;;;6.50;;
77733;SDS011;66902;41.720;44.796;2023-03-01T14:38:30;19.60;;;6.30;;
77733;SDS011;66902;41.720;44.796;2023-03-01T14:41:03;8.00;;;5.60;;
77733;SDS011;66902;41.720;44.796;2023-03-01T14:43:36;13.10;;;6.80;;
77733;SDS011;66902;41.720;44.796;2023-03-01T14:46:16;17.40;;;6.00;;
77733;SDS011;66902;41.720;44.796;2023-03-01T14:48:49;20.40;;;6.80;;
77733;SDS011;66902;41.720;44.796;2023-03-01T14:51:21;16.20;;;7.00;;
77733;SDS011;66902;41.720;44.796;2023-03-01T14:53:52;18.00;;;5.50;;
77733;SDS011;66902;41.720;44.796;2023-03-01T14:56:23;12.40;;;6.40;;
77733;SDS011;66902;41.720;44.796;2023-03-01T14:58:57;12.30;;;7.20;;
77733;SDS011;66902;41.720;44.796;2023-03-01T15:01:28;21.80;;;7.30;;
77733;SDS011;66902;41.720;44.796;2023-03-01T15:03:59;15.30;;;7.00;;
77733;SDS011;66902;41.720;44.796;2023-03-01T15:06:30;10.90;;;6.80;;
77733;SDS011;66902;41.720;44.796;2023-03-01T15:09:01;13.70;;;7.20;;
77733;SDS011;66902;41.720;44.796;2023-03-01T15:11:33;21.50;;;6.70;;
77733;SDS011;66902;41.720;44.796;2023-03-01T15:14:08;26.00;;;9.10;;
77733;SDS011;66902;41.720;44.796;2023-03-01T15:16:56;14.80;;;7.00;;
77733;SDS011;66902;41.720;44.796;2023-03-01T15:19:28;11.80;;;6.10;;
77733;SDS011;66902;41.720;44.796;2023-03-01T15:21:59;15.50;;;6.60;;